Hesper, North Dakota
Current Conditions -  °F | °C
As of 9:35 AM on Monday 22 Dec 2014 (Local Time) from K5H4 Reporting Station
Haze Haze  
Wind Chill: 25°   Ceiling: 700
Heat Index: 30°   Visibility: 2.5mi
Dew Point: 30°   Wind: 5mph
Humidity: 100%   Direction: 30°NNE
Pressure: 29.5"   Gusts: NA
Location:  47.9341°N, 99.5547°W
Report Text: K5H4 221535Z AUTO 03004KT 2 1/2SM BR OVC007 M01/M01 A2950 RMK AO2
Loading
Personal Weather Stations






























Interactive Weather Map New forecast layout! Learn more

10-Day Weather Forecast

Advertisements
Track Severe Weather on mobile